Time;durP1;ratioP1;P1;durP2;ratioP2;P2;SDS_P1;SDS_P2;PMS_P1;PMS_P2;Temp;Humidity;BMP_temperature;BMP_pressure;BME280_temperature;BME280_humidity;BME280_pressure;Samples;Min_cycle;Max_cycle;Signal;HPM_P1;HPM_P2
2022/11/24 00:02:00;;;;;;;21.92;10.73;;;7.00;99.90;;;;;;5073187;28;20177;-44
2022/11/24 00:04:25;;;;;;;20.38;12.40;;;7.00;99.90;;;;;;5074226;28;20534;-44
2022/11/24 00:06:52;;;;;;;21.17;9.98;;;7.00;99.90;;;;;;5072754;28;20041;-44
2022/11/24 00:09:18;;;;;;;20.05;10.55;;;7.20;99.90;;;;;;5074694;28;20080;-44
2022/11/24 00:11:44;;;;;;;18.58;10.35;;;7.00;99.90;;;;;;5074074;28;20044;-44
2022/11/24 00:14:11;;;;;;;21.15;10.57;;;6.90;99.90;;;;;;5073810;28;20059;-44
2022/11/24 00:16:37;;;;;;;21.67;9.00;;;7.10;99.90;;;;;;5074072;28;20410;-44
2022/11/24 00:19:07;;;;;;;26.13;11.73;;;7.30;99.90;;;;;;5073968;28;20538;-44
2022/11/24 00:21:34;;;;;;;27.48;12.55;;;6.80;99.90;;;;;;5073763;28;20052;-44
2022/11/24 00:24:00;;;;;;;27.48;12.40;;;6.90;99.90;;;;;;5074777;28;20395;-43
2022/11/24 00:26:31;;;;;;;28.58;12.43;;;6.70;99.90;;;;;;5073895;28;20474;-44
2022/11/24 00:28:59;;;;;;;30.48;14.15;;;6.70;99.90;;;;;;5073840;28;20044;-44
2022/11/24 00:31:28;;;;;;;24.17;12.98;;;6.90;99.90;;;;;;5073485;28;20389;-44
2022/11/24 00:33:56;;;;;;;27.15;13.82;;;6.60;99.90;;;;;;5073794;28;20041;-43
2022/11/24 00:36:24;;;;;;;27.55;12.65;;;6.90;99.90;;;;;;5073804;28;20109;-44
2022/11/24 00:38:55;;;;;;;28.88;12.23;;;6.70;99.90;;;;;;5073748;28;20097;-43
2022/11/24 00:41:21;;;;;;;29.27;11.88;;;6.90;99.90;;;;;;5073520;28;20052;-43
2022/11/24 00:43:47;;;;;;;33.17;12.52;;;6.60;99.90;;;;;;5072748;28;20099;-44
2022/11/24 00:46:13;;;;;;;28.58;12.32;;;6.90;99.90;;;;;;5072497;28;20079;-43
2022/11/24 00:48:38;;;;;;;37.08;13.60;;;6.90;99.90;;;;;;5074412;28;20048;-43
2022/11/24 00:51:07;;;;;;;37.75;13.07;;;7.10;99.90;;;;;;5073857;28;20063;-44
2022/11/24 00:53:33;;;;;;;35.28;12.85;;;6.90;99.90;;;;;;5073602;28;20075;-43
2022/11/24 00:56:00;;;;;;;30.98;12.68;;;7.00;99.90;;;;;;5073637;28;20050;-43
2022/11/24 00:58:25;;;;;;;30.38;10.45;;;6.70;99.90;;;;;;5073593;28;20060;-43
2022/11/24 01:00:51;;;;;;;28.55;12.52;;;6.60;99.90;;;;;;5073507;28;20127;-44
2022/11/24 01:03:19;;;;;;;21.00;7.55;;;6.90;99.90;;;;;;5073469;28;20044;-43
2022/11/24 01:05:45;;;;;;;22.30;10.02;;;6.70;99.90;;;;;;5073520;28;20052;-44
2022/11/24 01:08:11;;;;;;;24.83;10.75;;;6.70;99.90;;;;;;5073167;28;20044;-43
2022/11/24 01:10:37;;;;;;;19.10;6.43;;;6.70;99.90;;;;;;5073949;28;20170;-44
2022/11/24 01:13:03;;;;;;;29.27;8.95;;;6.90;99.90;;;;;;5073429;28;20082;-43
2022/11/24 01:15:29;;;;;;;27.38;9.60;;;6.80;99.90;;;;;;5073345;28;20056;-44
2022/11/24 01:17:56;;;;;;;30.60;11.23;;;6.90;99.90;;;;;;5073938;28;20375;-44
2022/11/24 01:20:22;;;;;;;24.85;9.48;;;6.60;99.90;;;;;;5072400;28;20045;-44
2022/11/24 01:22:48;;;;;;;27.38;9.95;;;6.80;99.90;;;;;;5073509;28;20036;-43
2022/11/24 01:25:14;;;;;;;22.33;9.20;;;6.70;99.90;;;;;;5073323;28;20049;-44
2022/11/24 01:27:40;;;;;;;25.08;8.20;;;6.50;99.90;;;;;;5072962;28;20552;-43
2022/11/24 01:30:06;;;;;;;27.63;8.55;;;6.70;99.90;;;;;;5073237;28;20048;-43
2022/11/24 01:32:34;;;;;;;30.35;8.60;;;6.40;99.90;;;;;;5072078;28;20521;-43
2022/11/24 01:35:04;;;;;;;26.35;9.32;;;6.60;99.90;;;;;;5072260;28;20060;-44
2022/11/24 01:37:30;;;;;;;22.08;8.25;;;6.60;99.90;;;;;;5073208;28;20044;-44
2022/11/24 01:39:56;;;;;;;33.30;8.20;;;6.50;99.90;;;;;;5073034;28;20041;-43
2022/11/24 01:42:21;;;;;;;23.20;7.32;;;7.00;99.90;;;;;;5075687;28;20372;-43
2022/11/24 01:44:50;;;;;;;19.67;6.07;;;6.80;99.90;;;;;;5077731;28;20053;-42
2022/11/24 01:47:35;;;;;;;29.55;8.40;;;6.90;99.90;;;;;;5059477;28;20040;-42
2022/11/24 01:50:03;;;;;;;20.92;6.47;;;6.70;99.90;;;;;;5077447;28;20048;-42
2022/11/24 01:52:40;;;;;;;29.58;8.20;;;6.60;99.90;;;;;;5075613;28;20049;-43
2022/11/24 01:55:13;;;;;;;21.05;6.15;;;6.90;99.90;;;;;;5076604;28;20049;-43
2022/11/24 01:57:43;;;;;;;29.73;7.70;;;6.80;99.90;;;;;;5075821;28;20051;-43
2022/11/24 02:00:11;;;;;;;28.33;8.18;;;6.70;99.90;;;;;;5076679;28;20091;-44
2022/11/24 02:02:38;;;;;;;27.50;8.00;;;6.80;99.90;;;;;;5077054;28;20044;-43
2022/11/24 02:05:27;;;;;;;31.30;8.00;;;7.10;99.90;;;;;;5076395;28;20049;-43
2022/11/24 02:07:56;;;;;;;30.42;8.32;;;6.80;99.90;;;;;;5077088;28;20056;-43
2022/11/24 02:10:22;;;;;;;19.45;6.72;;;6.80;99.90;;;;;;5076444;28;20097;-43
2022/11/24 02:12:51;;;;;;;33.47;8.70;;;6.90;99.90;;;;;;5075713;28;20048;-41
2022/11/24 02:15:18;;;;;;;38.70;10.13;;;7.00;99.90;;;;;;5075112;28;20048;-42
2022/11/24 02:17:44;;;;;;;30.00;7.60;;;6.70;99.90;;;;;;5077122;28;20398;-43
2022/11/24 02:20:11;;;;;;;32.50;7.85;;;6.60;99.90;;;;;;5076281;28;20048;-44
2022/11/24 02:22:54;;;;;;;24.38;6.82;;;6.80;99.90;;;;;;5075041;28;20041;-45
2022/11/24 02:25:26;;;;;;;29.17;6.82;;;6.60;99.90;;;;;;5075568;28;20048;-44
2022/11/24 02:27:53;;;;;;;32.35;6.70;;;6.90;99.90;;;;;;5076148;28;20049;-44
2022/11/24 02:30:19;;;;;;;25.00;6.68;;;6.90;99.90;;;;;;5076113;28;20084;-43
2022/11/24 02:32:44;;;;;;;27.98;6.35;;;6.80;99.90;;;;;;5076566;28;20113;-43
2022/11/24 02:35:11;;;;;;;35.45;7.68;;;6.80;99.90;;;;;;5075638;28;20051;-43
2022/11/24 02:37:37;;;;;;;29.38;7.38;;;6.60;99.90;;;;;;5076467;28;20040;-43
2022/11/24 02:40:03;;;;;;;31.55;7.80;;;6.80;99.90;;;;;;5076163;28;20063;-43
2022/11/24 02:42:34;;;;;;;30.55;7.03;;;6.50;99.90;;;;;;5074676;28;20431;-43
2022/11/24 02:45:00;;;;;;;32.67;7.03;;;6.50;99.90;;;;;;5076176;28;20398;-43
2022/11/24 02:47:26;;;;;;;32.35;6.97;;;6.70;99.90;;;;;;5075798;28;20040;-43
2022/11/24 02:49:52;;;;;;;36.55;7.38;;;6.20;99.90;;;;;;5057290;28;20085;-43
2022/11/24 02:52:18;;;;;;;31.75;7.63;;;6.70;99.90;;;;;;5074887;28;20056;-43
2022/11/24 02:54:44;;;;;;;28.00;6.75;;;6.10;99.90;;;;;;5075177;28;20103;-43
2022/11/24 02:57:10;;;;;;;40.47;7.30;;;6.70;99.90;;;;;;5075299;28;20558;-43
2022/11/24 02:59:36;;;;;;;34.28;7.25;;;6.40;99.90;;;;;;5075555;28;20041;-42
2022/11/24 03:02:02;;;;;;;40.25;6.70;;;6.10;99.90;;;;;;5075414;28;20102;-43
2022/11/24 03:04:28;;;;;;;40.28;7.55;;;6.30;99.90;;;;;;5075492;28;20044;-43
2022/11/24 03:06:56;;;;;;;32.60;7.75;;;;;;;;;;5074768;28;20040;-43
2022/11/24 03:09:22;;;;;;;28.65;6.53;;;6.00;99.90;;;;;;5075345;28;20055;-43
2022/11/24 03:11:47;;;;;;;28.35;6.22;;;6.40;99.90;;;;;;5075276;28;20040;-43
2022/11/24 03:14:13;;;;;;;31.40;6.45;;;5.90;99.90;;;;;;5075971;28;20045;-43
2022/11/24 03:16:39;;;;;;;32.97;6.38;;;6.40;99.90;;;;;;5075193;28;20502;-43
2022/11/24 03:19:04;;;;;;;27.63;6.20;;;6.10;99.90;;;;;;5075120;28;20048;-43
2022/11/24 03:21:30;;;;;;;34.15;6.78;;;6.30;99.90;;;;;;5041064;28;20097;-43
2022/11/24 03:23:56;;;;;;;34.28;6.35;;;6.60;99.90;;;;;;5075309;28;20097;-43
2022/11/24 03:26:24;;;;;;;38.05;7.25;;;6.40;99.90;;;;;;5076091;28;20045;-43
2022/11/24 03:28:53;;;;;;;25.17;5.47;;;6.40;99.90;;;;;;5074945;28;20052;-43
2022/11/24 03:31:20;;;;;;;24.05;5.00;;;7.00;99.90;;;;;;5073971;28;20052;-43
2022/11/24 03:33:45;;;;;;;27.10;6.22;;;6.20;99.90;;;;;;5074823;28;20482;-43
2022/11/24 03:36:11;;;;;;;27.73;5.97;;;6.40;99.90;;;;;;5073618;28;20045;-43
2022/11/24 03:38:37;;;;;;;32.10;5.43;;;6.40;99.90;;;;;;5073775;28;20036;-44
2022/11/24 03:41:02;;;;;;;33.53;6.53;;;6.40;99.90;;;;;;5074401;28;20056;-43
2022/11/24 03:43:28;;;;;;;29.15;5.93;;;6.10;99.90;;;;;;5073384;28;20048;-43
2022/11/24 03:45:55;;;;;;;28.58;5.20;;;6.70;99.90;;;;;;5074607;28;20056;-43
2022/11/24 03:48:21;;;;;;;28.25;5.95;;;6.50;99.90;;;;;;5056916;28;20478;-43
2022/11/24 03:50:54;;;;;;;26.35;4.85;;;6.30;99.90;;;;;;5074403;28;20052;-43
2022/11/24 03:53:21;;;;;;;33.10;6.47;;;6.20;99.90;;;;;;5074523;28;20049;-43
2022/11/24 03:55:47;;;;;;;28.77;5.07;;;6.40;99.90;;;;;;5074441;28;20411;-43
2022/11/24 03:58:13;;;;;;;28.58;5.47;;;6.70;99.90;;;;;;5073194;28;20052;-43
2022/11/24 04:00:38;;;;;;;37.67;6.53;;;6.40;99.90;;;;;;5074351;28;20044;-43
2022/11/24 04:03:04;;;;;;;30.05;5.70;;;6.20;99.90;;;;;;5074748;28;20143;-44
2022/11/24 04:05:30;;;;;;;22.98;5.03;;;6.10;99.90;;;;;;5073357;28;20048;-43
2022/11/24 04:07:56;;;;;;;26.90;5.03;;;6.10;99.90;;;;;;5074210;28;20048;-44
2022/11/24 04:10:23;;;;;;;29.85;4.85;;;6.00;99.90;;;;;;5074493;28;20180;-43
2022/11/24 04:12:49;;;;;;;25.15;5.53;;;6.30;99.90;;;;;;5056730;28;20053;-43
2022/11/24 04:15:17;;;;;;;26.48;4.57;;;6.60;99.90;;;;;;5056676;28;20049;-44
2022/11/24 04:17:44;;;;;;;24.45;4.03;;;6.10;99.90;;;;;;5073701;28;20498;-43
2022/11/24 04:20:11;;;;;;;23.42;5.50;;;6.20;99.90;;;;;;5073966;28;20491;-43
2022/11/24 04:22:36;;;;;;;20.05;3.83;;;6.50;99.90;;;;;;5073869;28;20048;-44
2022/11/24 04:25:03;;;;;;;20.65;4.25;;;7.00;99.90;;;;;;5074705;28;20047;-44
2022/11/24 04:27:30;;;;;;;19.80;4.07;;;6.40;99.90;;;;;;5073744;28;20075;-43
2022/11/24 04:29:56;;;;;;;30.35;4.93;;;6.60;99.90;;;;;;5074130;28;20048;-43
2022/11/24 04:32:22;;;;;;;22.08;3.83;;;6.30;99.90;;;;;;5073833;28;20482;-43
2022/11/24 04:34:48;;;;;;;19.42;3.80;;;6.60;99.90;;;;;;5074395;28;20079;-44
2022/11/24 04:37:13;;;;;;;24.90;4.70;;;6.70;99.90;;;;;;5073862;28;20052;-44
2022/11/24 04:39:39;;;;;;;23.63;4.45;;;7.10;99.90;;;;;;5073815;28;20102;-44
2022/11/24 04:42:05;;;;;;;24.60;3.80;;;6.50;99.90;;;;;;5073785;28;20382;-44
2022/11/24 04:44:31;;;;;;;27.75;4.07;;;6.70;99.90;;;;;;5073998;28;20048;-44
2022/11/24 04:46:56;;;;;;;22.13;3.63;;;6.80;99.90;;;;;;5073722;28;20040;-43
2022/11/24 04:49:22;;;;;;;23.63;5.80;;;6.40;99.90;;;;;;5073674;28;20053;-44
2022/11/24 04:51:48;;;;;;;25.35;5.75;;;6.70;99.90;;;;;;5074208;28;20052;-44
2022/11/24 04:54:14;;;;;;;24.63;4.15;;;6.30;99.90;;;;;;5055775;28;20044;-44
2022/11/24 04:56:41;;;;;;;18.80;3.60;;;6.70;99.90;;;;;;5055957;28;20375;-44
2022/11/24 04:59:07;;;;;;;19.42;4.03;;;6.30;99.90;;;;;;5073269;28;20555;-44
2022/11/24 05:01:32;;;;;;;21.98;3.60;;;6.30;99.90;;;;;;5073515;28;20044;-43
2022/11/24 05:03:58;;;;;;;26.55;4.82;;;6.60;99.90;;;;;;5073524;28;20051;-43
2022/11/24 05:06:24;;;;;;;17.55;4.38;;;6.60;99.90;;;;;;5073530;28;20049;-43
2022/11/24 05:08:51;;;;;;;17.05;2.95;;;6.40;99.90;;;;;;5074321;28;20051;-44
2022/11/24 05:11:18;;;;;;;18.42;3.75;;;6.60;99.90;;;;;;5073527;28;20482;-44
2022/11/24 05:13:44;;;;;;;25.20;3.55;;;6.70;99.90;;;;;;5073387;28;20091;-44
2022/11/24 05:16:10;;;;;;;17.52;3.97;;;6.20;99.90;;;;;;5074413;28;20052;-44
2022/11/24 05:18:36;;;;;;;24.95;4.45;;;6.30;99.90;;;;;;5077741;28;20103;-43
2022/11/24 05:21:03;;;;;;;26.55;4.00;;;6.50;99.90;;;;;;5077927;28;20052;-43
2022/11/24 05:23:29;;;;;;;12.73;2.92;;;6.30;99.90;;;;;;5076389;28;20080;-43
2022/11/24 05:26:02;;;;;;;19.23;4.15;;;5.90;99.90;;;;;;5076907;28;20476;-44
2022/11/24 05:28:28;;;;;;;23.13;3.70;;;6.20;99.90;;;;;;5077840;28;20051;-43
2022/11/24 05:30:58;;;;;;;22.85;4.53;;;5.60;99.90;;;;;;5076986;28;20546;-44
2022/11/24 05:33:24;;;;;;;20.95;3.72;;;5.70;99.90;;;;;;5076873;28;20465;-44
2022/11/24 05:35:49;;;;;;;30.92;4.40;;;5.70;99.90;;;;;;5077352;28;20044;-43
2022/11/24 05:38:16;;;;;;;23.45;3.78;;;6.20;99.90;;;;;;5077093;28;20044;-44
2022/11/24 05:40:43;;;;;;;18.10;3.60;;;6.20;99.90;;;;;;5076965;28;20104;-44
2022/11/24 05:43:16;;;;;;;25.80;5.07;;;6.30;99.90;;;;;;5076877;28;20045;-43
2022/11/24 05:45:42;;;;;;;23.13;4.68;;;6.00;99.90;;;;;;5076826;28;20482;-43
2022/11/24 05:48:12;;;;;;;20.35;3.30;;;5.80;99.90;;;;;;5075840;28;20052;-43
2022/11/24 05:50:38;;;;;;;21.02;4.00;;;5.90;99.90;;;;;;5076750;28;20059;-43
2022/11/24 05:53:06;;;;;;;30.38;3.85;;;6.10;99.90;;;;;;5075740;28;20059;-43
2022/11/24 05:55:31;;;;;;;22.55;4.05;;;5.80;99.90;;;;;;5077177;28;20093;-43
2022/11/24 05:57:59;;;;;;;25.25;3.70;;;5.80;99.90;;;;;;5076634;28;20052;-44
2022/11/24 06:00:25;;;;;;;23.25;4.95;;;6.10;99.90;;;;;;5075561;28;20129;-44
2022/11/24 06:02:51;;;;;;;21.75;3.40;;;5.90;99.90;;;;;;5058686;28;20044;-44
2022/11/24 06:05:16;;;;;;;21.58;3.80;;;5.90;99.90;;;;;;5076420;28;20055;-43
2022/11/24 06:07:42;;;;;;;24.17;5.13;;;5.90;99.90;;;;;;5059310;28;20144;-44
2022/11/24 06:10:08;;;;;;;17.10;2.67;;;5.90;99.90;;;;;;5076332;28;20067;-44
2022/11/24 06:12:35;;;;;;;21.42;4.20;;;6.10;99.90;;;;;;5076882;28;20047;-44
2022/11/24 06:15:01;;;;;;;15.50;3.25;;;6.00;99.90;;;;;;5075332;28;20406;-44
2022/11/24 06:17:27;;;;;;;19.17;3.75;;;6.00;99.90;;;;;;5076351;28;20047;-44
2022/11/24 06:19:52;;;;;;;23.52;4.55;;;5.80;99.90;;;;;;5076323;28;20056;-44
2022/11/24 06:22:18;;;;;;;16.40;3.88;;;6.10;99.90;;;;;;5076739;28;20048;-44
2022/11/24 06:24:45;;;;;;;19.83;4.07;;;5.80;99.90;;;;;;5076209;28;20047;-44
2022/11/24 06:27:11;;;;;;;26.23;4.20;;;5.90;99.90;;;;;;5075812;28;20141;-44
2022/11/24 06:29:38;;;;;;;15.30;3.20;;;6.20;99.90;;;;;;5075482;28;20044;-44
2022/11/24 06:32:04;;;;;;;18.48;3.00;;;6.10;99.90;;;;;;5076088;28;20049;-44
2022/11/24 06:34:30;;;;;;;17.23;4.55;;;5.70;99.90;;;;;;5074891;28;20173;-44
2022/11/24 06:36:56;;;;;;;23.42;4.60;;;5.80;99.90;;;;;;5076592;28;20081;-43
2022/11/24 06:39:21;;;;;;;20.80;3.85;;;5.80;99.90;;;;;;5075978;28;20040;-43
2022/11/24 06:41:49;;;;;;;21.55;3.67;;;6.10;99.90;;;;;;5074666;28;20382;-44
2022/11/24 06:44:15;;;;;;;20.95;4.43;;;5.50;99.90;;;;;;5074865;28;20048;-43
2022/11/24 06:46:41;;;;;;;18.80;3.08;;;5.50;99.90;;;;;;5075832;28;20049;-44
2022/11/24 06:49:06;;;;;;;23.17;4.30;;;6.00;99.90;;;;;;5075804;28;20044;-44
2022/11/24 06:51:32;;;;;;;20.33;3.13;;;5.50;99.90;;;;;;5075202;28;20056;-44
2022/11/24 06:53:58;;;;;;;22.20;3.72;;;5.50;99.90;;;;;;5075658;28;20495;-43
2022/11/24 06:56:24;;;;;;;21.95;3.63;;;5.80;99.90;;;;;;5075642;28;20044;-43
2022/11/24 06:58:52;;;;;;;25.63;4.18;;;5.20;99.90;;;;;;5074399;28;20517;-43
2022/11/24 07:01:23;;;;;;;20.52;3.75;;;5.60;99.90;;;;;;5076240;28;20046;-43
2022/11/24 07:03:51;;;;;;;27.50;5.95;;;5.30;99.90;;;;;;5075496;28;20110;-43
2022/11/24 07:06:18;;;;;;;22.40;4.05;;;5.10;99.90;;;;;;5076285;28;20048;-43
2022/11/24 07:08:45;;;;;;;20.15;3.67;;;5.30;99.90;;;;;;5075429;28;20052;-43
2022/11/24 07:11:15;;;;;;;25.77;4.47;;;5.30;99.90;;;;;;5075165;28;20044;-43
2022/11/24 07:13:41;;;;;;;24.25;3.53;;;5.50;99.90;;;;;;5074679;28;20106;-44
2022/11/24 07:16:26;;;;;;;14.45;3.83;;;5.80;99.90;;;;;;5074208;28;20048;-44
2022/11/24 07:18:53;;;;;;;14.75;2.53;;;5.50;99.90;;;;;;5075249;28;20049;-44
2022/11/24 07:21:20;;;;;;;14.65;3.20;;;5.70;99.90;;;;;;5075076;28;20045;-44
2022/11/24 07:23:50;;;;;;;13.07;3.60;;;6.20;99.90;;;;;;5075627;28;20102;-44
2022/11/24 07:26:16;;;;;;;22.75;3.85;;;5.60;99.90;;;;;;5075052;28;20048;-44
2022/11/24 07:28:42;;;;;;;13.90;2.78;;;6.20;99.90;;;;;;5073579;28;20556;-44
2022/11/24 07:31:10;;;;;;;14.23;2.83;;;6.30;99.90;;;;;;5074244;28;20041;-44
2022/11/24 07:33:36;;;;;;;12.65;3.80;;;5.80;99.90;;;;;;5074882;28;20041;-44
2022/11/24 07:36:04;;;;;;;19.02;3.03;;;5.80;99.90;;;;;;5075046;28;20059;-44
2022/11/24 07:38:30;;;;;;;23.50;4.80;;;5.90;99.90;;;;;;5073640;28;20072;-44
2022/11/24 07:41:03;;;;;;;20.45;4.13;;;6.20;99.90;;;;;;5074593;28;20079;-43
2022/11/24 07:43:33;;;;;;;19.27;4.78;;;6.00;99.90;;;;;;5073484;28;20086;-44
2022/11/24 07:46:01;;;;;;;15.43;4.32;;;5.80;99.90;;;;;;5073158;28;20552;-43
2022/11/24 07:48:26;;;;;;;18.15;4.10;;;6.20;99.90;;;;;;5074222;28;20044;-44
2022/11/24 07:50:52;;;;;;;14.38;2.90;;;6.30;99.90;;;;;;5074777;28;20064;-44
2022/11/24 07:53:18;;;;;;;19.42;4.35;;;6.00;99.90;;;;;;5074359;28;20133;-44
2022/11/24 07:55:51;;;;;;;23.38;4.95;;;6.20;99.90;;;;;;5056573;28;20048;-44
2022/11/24 07:58:17;;;;;;;19.42;4.00;;;6.00;99.90;;;;;;5075053;28;20044;-43
2022/11/24 08:00:42;;;;;;;16.30;4.20;;;6.00;99.90;;;;;;5056598;28;20449;-44
2022/11/24 08:03:08;;;;;;;17.70;4.22;;;6.20;99.90;;;;;;5073061;28;20049;-44
2022/11/24 08:05:33;;;;;;;14.55;5.18;;;6.30;99.90;;;;;;5073659;28;20056;-43
2022/11/24 08:07:59;;;;;;;16.88;4.63;;;6.50;99.90;;;;;;5074502;28;20072;-43
2022/11/24 08:10:25;;;;;;;13.05;3.95;;;6.60;99.90;;;;;;5073286;28;20497;-44
2022/11/24 08:12:51;;;;;;;23.60;5.68;;;6.30;99.90;;;;;;5074425;28;20494;-44
2022/11/24 08:15:16;;;;;;;17.10;4.10;;;6.20;99.90;;;;;;5072791;28;20110;-44
2022/11/24 08:17:42;;;;;;;26.23;5.57;;;6.20;99.90;;;;;;5072890;28;20052;-43
2022/11/24 08:20:09;;;;;;;17.15;4.90;;;6.50;99.90;;;;;;5074132;28;20052;-44
2022/11/24 08:22:34;;;;;;;22.73;5.25;;;6.30;99.90;;;;;;5074526;28;20041;-44
2022/11/24 08:25:00;;;;;;;17.75;4.47;;;6.60;99.90;;;;;;5074024;28;20398;-44
2022/11/24 08:27:26;;;;;;;19.20;6.63;;;6.40;99.90;;;;;;5073939;28;20040;-43
2022/11/24 08:29:52;;;;;;;13.98;4.40;;;6.20;99.90;;;;;;5074216;28;20049;-44
2022/11/24 08:32:17;;;;;;;20.92;5.50;;;6.50;99.90;;;;;;5073878;28;20544;-45
2022/11/24 08:34:43;;;;;;;17.05;4.80;;;6.40;99.90;;;;;;5072698;28;20513;-44
2022/11/24 08:37:09;;;;;;;18.63;5.57;;;6.40;99.90;;;;;;5056550;28;20045;-44
2022/11/24 08:39:34;;;;;;;16.83;4.15;;;6.30;99.90;;;;;;5074012;28;20083;-44
2022/11/24 08:42:00;;;;;;;17.65;4.53;;;6.90;99.90;;;;;;5056037;28;20050;-43
2022/11/24 08:44:27;;;;;;;16.40;5.13;;;7.10;99.90;;;;;;5074264;28;20482;-43
2022/11/24 08:46:53;;;;;;;21.50;4.78;;;7.00;99.90;;;;;;5072782;28;20052;-44
2022/11/24 08:49:20;;;;;;;15.70;4.63;;;7.00;99.90;;;;;;5073668;28;20048;-44
2022/11/24 08:51:47;;;;;;;20.92;5.43;;;7.00;99.90;;;;;;5071952;28;20060;-44
2022/11/24 08:54:14;;;;;;;18.30;4.70;;;7.30;99.90;;;;;;5072484;28;20584;-44
2022/11/24 08:56:40;;;;;;;18.65;5.75;;;7.10;99.90;;;;;;5072385;28;20049;-44
2022/11/24 08:59:06;;;;;;;16.33;5.47;;;7.00;99.90;;;;;;5072387;28;20044;-43
2022/11/24 09:01:31;;;;;;;16.77;4.82;;;6.90;99.90;;;;;;5073529;28;20055;-43
2022/11/24 09:03:57;;;;;;;14.60;5.65;;;7.10;99.90;;;;;;5072347;28;20045;-43
2022/11/24 09:06:29;;;;;;;19.75;5.38;;;6.80;99.90;;;;;;5073780;28;20045;-44
2022/11/24 09:08:56;;;;;;;14.10;5.03;;;6.80;99.90;;;;;;5073483;28;20051;-43
2022/11/24 09:11:23;;;;;;;18.13;6.00;;;7.20;99.90;;;;;;5073464;28;20044;-44
2022/11/24 09:13:49;;;;;;;22.15;6.30;;;6.70;99.90;;;;;;5073475;28;20048;-43
2022/11/24 09:16:18;;;;;;;17.45;6.28;;;6.90;99.90;;;;;;5073353;28;20044;-44
2022/11/24 09:18:44;;;;;;;12.73;4.68;;;7.00;99.90;;;;;;5073423;28;20077;-43
2022/11/24 09:21:10;;;;;;;17.23;5.70;;;7.20;99.90;;;;;;5071891;28;20505;-43
2022/11/24 09:23:37;;;;;;;22.27;6.40;;;7.10;99.90;;;;;;5073022;28;20498;-43
2022/11/24 09:26:04;;;;;;;12.48;4.60;;;7.30;99.90;;;;;;5073857;28;20453;-43
2022/11/24 09:28:30;;;;;;;14.75;4.78;;;7.10;99.90;;;;;;5073624;28;20050;-43
2022/11/24 09:31:00;;;;;;;16.85;5.30;;;7.20;99.90;;;;;;5073815;28;20041;-43
2022/11/24 09:33:26;;;;;;;12.52;4.85;;;7.60;99.90;;;;;;5073271;28;20045;-43
2022/11/24 09:35:52;;;;;;;16.17;5.63;;;7.60;99.90;;;;;;5073245;28;20044;-43
2022/11/24 09:38:17;;;;;;;14.43;4.45;;;7.50;99.90;;;;;;5072294;28;20159;-43
2022/11/24 09:40:43;;;;;;;9.18;3.78;;;7.50;99.90;;;;;;5073735;28;20056;-44
2022/11/24 09:43:24;;;;;;;11.00;3.08;;;7.60;99.90;;;;;;5073115;28;20101;-43
2022/11/24 09:46:03;;;;;;;9.23;3.10;;;7.80;99.90;;;;;;5073737;28;20045;-43
2022/11/24 09:48:42;;;;;;;11.40;3.78;;;7.80;99.90;;;;;;5071698;28;20494;-43
2022/11/24 09:51:12;;;;;;;11.68;3.58;;;7.90;99.90;;;;;;5072676;28;20402;-43
2022/11/24 09:53:40;;;;;;;10.30;4.60;;;7.90;99.90;;;;;;5073126;28;20051;-43
2022/11/24 09:56:20;;;;;;;14.40;3.63;;;8.50;99.90;;;;;;5073589;28;20103;-43
2022/11/24 09:58:58;;;;;;;7.07;2.92;;;8.00;99.90;;;;;;5073916;28;20069;-43
2022/11/24 10:01:39;;;;;;;9.73;2.47;;;8.10;99.90;;;;;;5073320;28;20102;-43
2022/11/24 10:04:29;;;;;;;8.45;2.53;;;8.20;99.90;;;;;;5077158;28;20048;-43
2022/11/24 10:07:26;;;;;;;8.45;2.70;;;8.30;99.90;;;;;;5076581;28;20407;-43
2022/11/24 10:09:55;;;;;;;11.52;2.60;;;8.30;99.90;;;;;;5077066;28;20048;-43
2022/11/24 10:12:33;;;;;;;11.55;2.92;;;8.50;99.90;;;;;;5077336;28;20052;-43
2022/11/24 10:15:23;;;;;;;6.53;2.25;;;7.90;99.90;;;;;;5076389;28;20049;-43
2022/11/24 10:18:20;;;;;;;11.00;3.20;;;8.40;99.90;;;;;;5076466;28;20084;-42
2022/11/24 10:21:03;;;;;;;7.55;2.55;;;8.40;99.90;;;;;;5076361;28;20048;-43
2022/11/24 10:23:50;;;;;;;9.13;2.70;;;8.50;99.90;;;;;;5076258;28;20485;-43
2022/11/24 10:26:35;;;;;;;5.32;2.20;;;8.70;99.90;;;;;;5076253;28;20045;-43
2022/11/24 10:29:09;;;;;;;9.10;2.45;;;8.50;99.90;;;;;;5076816;28;20387;-43
2022/11/24 10:31:39;;;;;;;9.85;2.10;;;8.60;99.90;;;;;;5076486;28;20071;-43
2022/11/24 10:34:14;;;;;;;9.32;1.83;;;8.80;99.90;;;;;;5076119;28;20047;-43
2022/11/24 10:37:05;;;;;;;9.15;2.35;;;8.80;99.90;;;;;;5076087;28;20537;-42
2022/11/24 10:39:37;;;;;;;7.57;3.28;;;8.70;99.90;;;;;;5075643;28;20105;-43
2022/11/24 10:42:06;;;;;;;11.85;2.47;;;8.80;99.90;;;;;;5076157;28;20393;-42
2022/11/24 10:44:32;;;;;;;6.35;2.88;;;8.80;99.90;;;;;;5076663;28;20049;-43
2022/11/24 10:46:58;;;;;;;9.80;2.65;;;9.00;99.90;;;;;;5075818;28;20474;-42
2022/11/24 10:49:30;;;;;;;10.45;2.10;;;8.90;99.90;;;;;;5075491;28;20041;-42
2022/11/24 10:52:15;;;;;;;9.27;2.38;;;9.10;99.90;;;;;;5075721;28;20136;-42
2022/11/24 10:54:58;;;;;;;9.85;2.80;;;9.10;99.90;;;;;;5076060;28;20044;-42
2022/11/24 10:57:31;;;;;;;;;;;9.00;99.90;;;;;;5076144;28;20041;-42
2022/11/24 10:59:58;;;;;;;7.93;2.83;;;9.10;99.90;;;;;;5075657;28;20015;-42
2022/11/24 11:02:38;;;;;;;7.68;2.17;;;9.40;99.90;;;;;;5074077;28;20307;-42
2022/11/24 11:05:36;;;;;;;7.28;2.00;;;9.20;99.90;;;;;;5075551;28;20052;-43
2022/11/24 11:08:29;;;;;;;10.13;2.53;;;9.50;99.90;;;;;;5075345;28;20102;-43
2022/11/24 11:11:27;;;;;;;5.15;2.13;;;9.30;99.90;;;;;;5075380;28;20054;-42
2022/11/24 11:14:02;;;;;;;9.70;3.08;;;9.60;99.90;;;;;;5052614;28;20459;-42
2022/11/24 11:16:49;;;;;;;11.18;3.15;;;9.50;99.90;;;;;;5074536;28;20053;-42
2022/11/24 11:19:35;;;;;;;9.57;2.53;;;9.50;99.90;;;;;;5075788;28;20050;-42
2022/11/24 11:22:04;;;;;;;10.38;2.75;;;9.90;99.90;;;;;;5075161;28;20052;-42
2022/11/24 11:24:31;;;;;;;7.38;2.40;;;9.50;99.90;;;;;;5075082;28;20048;-42
2022/11/24 11:27:23;;;;;;;10.43;2.42;;;9.50;99.90;;;;;;5074105;28;20427;-43
2022/11/24 11:29:50;;;;;;;8.88;2.38;;;9.70;99.90;;;;;;5073840;28;20047;-42
2022/11/24 11:32:24;;;;;;;9.57;2.42;;;9.50;99.90;;;;;;5074773;28;20055;-41
2022/11/24 11:34:53;;;;;;;10.85;2.72;;;9.70;99.90;;;;;;5074508;28;20040;-41
2022/11/24 11:37:22;;;;;;;12.73;3.67;;;9.80;99.90;;;;;;5074816;28;20045;-42
2022/11/24 11:39:50;;;;;;;12.65;2.47;;;9.90;99.90;;;;;;5074787;28;20051;-42
2022/11/24 11:42:32;;;;;;;10.93;4.07;;;10.00;99.90;;;;;;5073863;28;20046;-42
2022/11/24 11:45:17;;;;;;;6.05;2.03;;;8.90;99.90;;;;;;5074604;28;20099;-42
2022/11/24 11:48:01;;;;;;;9.75;3.15;;;9.80;99.90;;;;;;5074668;28;20048;-43
2022/11/24 11:50:53;;;;;;;10.63;2.75;;;9.80;99.90;;;;;;5074612;28;20060;-42
2022/11/24 11:53:26;;;;;;;11.40;2.72;;;10.00;99.90;;;;;;5074579;28;20059;-42
2022/11/24 11:56:07;;;;;;;;;;;9.90;99.90;;;;;;5075570;28;20052;-42
2022/11/24 11:58:49;;;;;;;7.90;2.67;;;10.00;99.90;;;;;;5074477;28;19943;-40
2022/11/24 12:01:40;;;;;;;10.27;2.43;;;10.50;99.90;;;;;;5074431;28;20048;-41
2022/11/24 12:04:54;;;;;;;8.07;2.85;;;10.10;99.90;;;;;;5074631;28;20389;-41
2022/11/24 12:07:42;;;;;;;10.55;2.90;;;10.20;99.90;;;;;;5037885;28;20144;-41
2022/11/24 12:10:15;;;;;;;20.83;3.83;;;;;;;;;;5074277;28;20127;-43
2022/11/24 12:12:52;;;;;;;;;;;10.00;99.90;;;;;;5073451;28;20433;-42
2022/11/24 12:15:34;;;;;;;10.48;2.17;;;;;;;;;;5074642;28;19924;-41
2022/11/24 12:18:15;;;;;;;12.48;3.70;;;;;;;;;;5074649;28;20044;-42
2022/11/24 12:20:44;;;;;;;15.65;3.08;;;;;;;;;;5074086;28;20056;-42
2022/11/24 12:23:16;;;;;;;8.00;2.05;;;11.50;99.90;;;;;;5073955;28;20044;-39
2022/11/24 12:25:49;;;;;;;14.30;2.65;;;11.60;99.90;;;;;;5073231;28;20048;-37
2022/11/24 12:28:39;;;;;;;11.25;2.30;;;11.70;99.90;;;;;;5074052;28;20493;-35
2022/11/24 12:31:36;;;;;;;13.63;2.75;;;11.90;99.90;;;;;;5073948;28;20074;-39
2022/11/24 12:34:24;;;;;;;13.25;2.13;;;12.00;1.00;;;;;;5074488;28;20056;-38
2022/11/24 12:37:08;;;;;;;12.25;2.38;;;12.10;99.90;;;;;;5073947;28;20055;-37
2022/11/24 12:39:54;;;;;;;11.13;2.88;;;12.10;99.90;;;;;;5074148;28;20067;-38
2022/11/24 12:42:48;;;;;;;11.05;2.70;;;12.10;1.00;;;;;;5073046;28;20399;-36
2022/11/24 12:45:16;;;;;;;11.20;2.60;;;12.10;1.00;;;;;;5073888;28;20044;-37
2022/11/24 12:48:06;;;;;;;8.73;2.58;;;12.00;17.70;;;;;;5074547;28;20048;-36
2022/11/24 12:50:37;;;;;;;10.35;2.80;;;12.10;95.60;;;;;;5074126;28;20052;-34
2022/11/24 12:53:12;;;;;;;11.00;2.25;;;12.20;99.90;;;;;;5072973;28;20056;-35
2022/11/24 12:55:40;;;;;;;8.45;2.30;;;12.30;1.00;;;;;;5074278;28;20044;-35
2022/11/24 12:58:44;;;;;;;11.57;2.55;;;12.30;99.90;;;;;;5074154;28;20049;-36
2022/11/24 13:01:17;;;;;;;6.93;1.80;;;12.20;99.90;;;;;;5072909;28;20049;-35
2022/11/24 13:04:07;;;;;;;11.93;2.10;;;11.90;99.90;;;;;;5073500;28;20059;-36